createdAt,value
2023-02-05T00:02:03.834Z,9.70
2023-02-05T00:04:31.172Z,10.00
2023-02-05T00:06:58.446Z,9.40
2023-02-05T00:09:26.009Z,9.60
2023-02-05T00:11:53.231Z,9.40
2023-02-05T00:16:48.796Z,9.30
2023-02-05T00:19:16.110Z,9.30
2023-02-05T00:21:44.333Z,10.50
2023-02-05T00:24:12.017Z,10.30
2023-02-05T00:26:40.642Z,9.20
2023-02-05T00:29:07.903Z,9.30
2023-02-05T00:31:35.333Z,9.30
2023-02-05T00:34:02.633Z,9.30
2023-02-05T00:36:29.945Z,9.60
2023-02-05T00:38:57.348Z,10.30
2023-02-05T00:43:52.259Z,9.40
2023-02-05T00:46:19.676Z,9.50
2023-02-05T00:48:47.300Z,9.40
2023-02-05T00:51:14.778Z,9.30
2023-02-05T00:56:09.665Z,9.20
2023-02-05T00:58:37.151Z,9.40
2023-02-05T01:01:04.984Z,9.30
2023-02-05T01:03:33.315Z,9.20
2023-02-05T01:06:03.214Z,9.30
2023-02-05T01:13:26.109Z,9.30
2023-02-05T01:15:53.626Z,9.50
2023-02-05T01:18:20.927Z,9.60
2023-02-05T01:20:48.246Z,9.20
2023-02-05T01:23:15.705Z,9.70
2023-02-05T01:25:42.925Z,9.20
2023-02-05T01:28:10.213Z,10.40
2023-02-05T01:33:05.198Z,9.30
2023-02-05T01:35:33.140Z,9.40
2023-02-05T01:42:55.808Z,9.40
2023-02-05T01:45:23.020Z,9.60
2023-02-05T01:47:55.934Z,9.40
2023-02-05T01:50:43.455Z,9.30
2023-02-05T01:53:16.910Z,10.30
2023-02-05T01:55:51.807Z,9.60
2023-02-05T02:00:47.771Z,9.30
2023-02-05T02:03:15.986Z,9.40
2023-02-05T02:05:43.478Z,9.60
2023-02-05T02:08:13.051Z,9.30
2023-02-05T02:10:43.754Z,9.40
2023-02-05T02:13:13.078Z,9.30
2023-02-05T02:15:41.212Z,9.50
2023-02-05T02:18:28.357Z,9.70
2023-02-05T02:21:23.072Z,9.30
2023-02-05T02:23:56.512Z,9.30
2023-02-05T02:26:26.893Z,9.30
2023-02-05T02:29:01.808Z,9.60
2023-02-05T02:31:38.544Z,9.80
2023-02-05T02:34:25.521Z,9.50
2023-02-05T02:36:59.736Z,9.30
2023-02-05T02:39:34.127Z,9.10
2023-02-05T02:42:13.690Z,9.60
2023-02-05T02:44:48.512Z,9.50
2023-02-05T02:47:22.039Z,9.30
2023-02-05T02:49:58.561Z,9.00
2023-02-05T02:52:29.635Z,9.40
2023-02-05T02:55:00.684Z,8.90
2023-02-05T02:57:29.347Z,9.40
2023-02-05T03:00:01.167Z,8.90
2023-02-05T03:02:35.322Z,9.10
2023-02-05T03:05:08.835Z,8.60
2023-02-05T03:07:45.072Z,8.60
2023-02-05T03:10:55.037Z,8.80
2023-02-05T03:13:22.972Z,8.70
2023-02-05T03:15:56.262Z,8.50
2023-02-05T03:18:24.737Z,9.20
2023-02-05T03:21:09.223Z,8.50
2023-02-05T03:23:36.468Z,8.50
2023-02-05T03:26:03.995Z,8.40
2023-02-05T03:28:40.492Z,9.40
2023-02-05T03:31:22.404Z,8.40
2023-02-05T03:34:01.121Z,8.30
2023-02-05T03:36:43.327Z,8.40
2023-02-05T03:39:18.606Z,8.30
2023-02-05T03:42:11.001Z,8.00
2023-02-05T03:45:00.182Z,9.00
2023-02-05T03:47:58.059Z,8.00
2023-02-05T03:50:33.246Z,7.90
2023-02-05T03:53:36.999Z,7.70
2023-02-05T03:56:28.724Z,7.80
2023-02-05T03:58:58.514Z,8.00
2023-02-05T04:01:27.859Z,8.00
2023-02-05T04:03:55.523Z,8.90
2023-02-05T04:06:23.931Z,7.70
2023-02-05T04:08:53.815Z,8.20
2023-02-05T04:11:21.206Z,7.40
2023-02-05T04:13:49.386Z,7.60
2023-02-05T04:16:16.741Z,7.70
2023-02-05T04:18:44.024Z,7.60
2023-02-05T04:21:11.500Z,7.20
2023-02-05T04:23:41.722Z,7.80
2023-02-05T04:26:09.422Z,7.20
2023-02-05T04:28:43.993Z,7.60
2023-02-05T04:31:12.756Z,7.60
2023-02-05T04:33:42.656Z,7.30
2023-02-05T04:36:12.404Z,8.00
2023-02-05T04:38:40.350Z,7.30
2023-02-05T04:41:08.175Z,7.20
2023-02-05T04:43:35.540Z,7.50
2023-02-05T04:46:10.395Z,6.60
2023-02-05T04:48:38.836Z,6.70
2023-02-05T04:51:07.699Z,6.80
2023-02-05T04:53:34.940Z,6.90
2023-02-05T04:56:06.139Z,6.90
2023-02-05T04:58:33.456Z,6.70
2023-02-05T05:01:00.912Z,6.80
2023-02-05T05:03:28.167Z,6.70
2023-02-05T05:05:55.387Z,7.20
2023-02-05T05:08:22.980Z,7.30
2023-02-05T05:10:50.248Z,6.80
2023-02-05T05:13:17.537Z,6.70
2023-02-05T05:15:44.802Z,6.60
2023-02-05T05:18:12.141Z,6.30
2023-02-05T05:20:40.751Z,7.40
2023-02-05T05:23:09.705Z,6.80
2023-02-05T05:25:42.525Z,6.40
2023-02-05T05:28:09.939Z,6.50
2023-02-05T05:30:41.991Z,6.00
2023-02-05T05:33:09.536Z,6.00
2023-02-05T05:35:37.145Z,6.40
2023-02-05T05:38:04.838Z,5.00
2023-02-05T05:40:51.745Z,6.20
2023-02-05T05:43:39.583Z,6.00
2023-02-05T05:46:08.270Z,5.90
2023-02-05T05:48:35.755Z,6.00
2023-02-05T05:51:03.357Z,5.80
2023-02-05T05:53:31.807Z,5.90
2023-02-05T06:00:56.849Z,5.80
2023-02-05T06:03:24.321Z,6.80
2023-02-05T06:05:51.598Z,6.00
2023-02-05T06:08:18.913Z,5.80
2023-02-05T06:10:46.233Z,6.10
2023-02-05T06:13:13.797Z,5.70
2023-02-05T06:18:08.690Z,5.70
2023-02-05T06:23:03.618Z,5.60
2023-02-05T06:25:30.953Z,5.50
2023-02-05T06:30:26.082Z,5.50
2023-02-05T06:32:53.385Z,5.90
2023-02-05T06:35:20.716Z,5.40
2023-02-05T06:37:48.112Z,5.40
2023-02-05T06:40:18.194Z,5.50
2023-02-05T06:42:45.872Z,5.50
2023-02-05T06:45:13.113Z,5.30
2023-02-05T06:47:40.420Z,5.50
2023-02-05T06:50:08.012Z,5.50
2023-02-05T06:52:35.461Z,5.50
2023-02-05T06:55:02.871Z,5.50
2023-02-05T06:57:31.834Z,5.50
2023-02-05T07:02:27.028Z,5.40
2023-02-05T07:04:54.255Z,5.10
2023-02-05T07:07:21.565Z,5.60
2023-02-05T07:12:16.491Z,5.30
2023-02-05T07:14:43.877Z,5.20
2023-02-05T07:17:11.586Z,5.40
2023-02-05T07:19:38.866Z,5.20
2023-02-05T07:22:06.147Z,5.10
2023-02-05T07:24:33.398Z,5.70
2023-02-05T07:27:00.698Z,5.10
2023-02-05T07:29:28.253Z,5.00
2023-02-05T07:31:55.532Z,5.40
2023-02-05T07:34:22.977Z,4.80
2023-02-05T07:36:51.707Z,4.90
2023-02-05T07:39:19.891Z,4.90
2023-02-05T07:41:47.473Z,4.80
2023-02-05T07:44:25.340Z,4.80
2023-02-05T07:46:52.577Z,4.90
2023-02-05T07:49:19.837Z,4.80
2023-02-05T07:54:15.716Z,4.80
2023-02-05T07:56:43.266Z,5.10
2023-02-05T07:59:10.616Z,4.70
2023-02-05T08:01:37.848Z,5.10
2023-02-05T08:04:05.177Z,5.00
2023-02-05T08:06:33.604Z,4.90
2023-02-05T08:09:00.977Z,5.50
2023-02-05T08:11:28.330Z,5.00
2023-02-05T08:13:55.553Z,5.00
2023-02-05T08:16:22.885Z,5.10
2023-02-05T08:18:50.778Z,5.70
2023-02-05T08:21:19.366Z,4.90
2023-02-05T08:23:46.652Z,4.90
2023-02-05T08:26:15.593Z,5.00
2023-02-05T08:28:43.406Z,5.00
2023-02-05T08:31:16.162Z,5.00
2023-02-05T08:33:43.934Z,4.90
2023-02-05T08:36:11.573Z,4.90
2023-02-05T08:38:38.943Z,5.00
2023-02-05T08:41:14.300Z,5.20
2023-02-05T08:43:43.875Z,5.00
2023-02-05T08:46:12.727Z,5.20
2023-02-05T08:51:10.875Z,5.20
2023-02-05T08:53:38.622Z,5.30
2023-02-05T08:56:06.984Z,5.40
2023-02-05T09:01:07.137Z,5.30
2023-02-05T09:03:34.415Z,5.40
2023-02-05T09:06:05.657Z,5.40
2023-02-05T09:08:32.981Z,5.60
2023-02-05T09:11:00.456Z,5.50
2023-02-05T09:13:27.754Z,5.40
2023-02-05T09:15:55.127Z,5.40
2023-02-05T09:18:22.538Z,5.30
2023-02-05T09:20:50.668Z,5.60
2023-02-05T09:23:18.974Z,5.50
2023-02-05T09:25:46.433Z,5.60
2023-02-05T09:28:15.034Z,5.50
2023-02-05T09:30:45.600Z,5.60
2023-02-05T09:33:14.245Z,5.60
2023-02-05T09:35:42.248Z,5.60
2023-02-05T09:38:13.643Z,6.40
2023-02-05T09:41:05.432Z,5.70
2023-02-05T09:43:50.679Z,5.70
2023-02-05T09:46:31.918Z,5.80
2023-02-05T09:49:21.233Z,5.80
2023-02-05T09:51:52.890Z,5.90
2023-02-05T09:54:28.070Z,5.90
2023-02-05T09:57:03.391Z,5.90
2023-02-05T09:59:32.790Z,6.00
2023-02-05T10:02:22.576Z,6.00
2023-02-05T10:04:57.684Z,7.10
2023-02-05T10:07:45.924Z,6.10
2023-02-05T10:10:25.269Z,6.50
2023-02-05T10:13:21.489Z,6.30
2023-02-05T10:16:23.260Z,6.50
2023-02-05T10:19:20.023Z,6.50
2023-02-05T10:22:00.644Z,6.70
2023-02-05T10:24:55.739Z,6.70
2023-02-05T10:27:27.859Z,6.80
2023-02-05T10:30:06.480Z,6.80
2023-02-05T10:33:05.364Z,6.80
2023-02-05T10:35:49.759Z,8.10
2023-02-05T10:38:25.273Z,7.00
2023-02-05T10:40:59.340Z,7.10
2023-02-05T10:43:43.092Z,7.40
2023-02-05T10:46:14.838Z,7.30
2023-02-05T10:49:12.108Z,7.90
2023-02-05T10:51:44.688Z,7.40
2023-02-05T10:54:33.760Z,7.70
2023-02-05T10:57:01.515Z,7.70
2023-02-05T10:59:31.322Z,7.80
2023-02-05T11:02:03.879Z,7.90
2023-02-05T11:04:42.308Z,8.00
2023-02-05T11:07:32.377Z,8.30
2023-02-05T11:10:17.673Z,8.20
2023-02-05T11:12:51.928Z,8.30
2023-02-05T11:15:23.721Z,8.40
2023-02-05T11:18:21.777Z,8.40
2023-02-05T11:20:56.768Z,8.80
2023-02-05T11:23:26.427Z,8.80
2023-02-05T11:26:08.314Z,9.00
2023-02-05T11:28:41.235Z,9.20
2023-02-05T11:31:27.064Z,9.40
2023-02-05T11:34:16.869Z,10.00
2023-02-05T11:36:57.391Z,9.80
2023-02-05T11:39:39.401Z,10.30
2023-02-05T11:42:20.074Z,10.70
2023-02-05T11:44:55.026Z,10.70
2023-02-05T11:47:46.110Z,11.10
2023-02-05T11:50:25.846Z,11.70
2023-02-05T11:52:55.677Z,11.80
2023-02-05T11:55:32.170Z,11.80
2023-02-05T11:58:03.088Z,12.20
2023-02-05T12:00:31.034Z,12.60
2023-02-05T12:03:17.984Z,13.00
2023-02-05T12:06:04.566Z,12.60
2023-02-05T12:08:51.739Z,12.90
2023-02-05T12:11:54.673Z,13.60
2023-02-05T12:14:37.380Z,13.30
2023-02-05T12:17:29.817Z,12.90
2023-02-05T12:20:03.630Z,12.80
2023-02-05T12:23:06.180Z,12.50
2023-02-05T12:25:50.276Z,12.30
2023-02-05T12:28:18.177Z,12.20
2023-02-05T12:31:10.679Z,12.20
2023-02-05T12:33:57.496Z,12.40
2023-02-05T12:36:44.583Z,12.30
2023-02-05T12:39:31.232Z,12.60
2023-02-05T12:42:22.373Z,12.80
2023-02-05T12:45:01.775Z,13.20
2023-02-05T12:48:01.926Z,14.00
2023-02-05T12:51:03.020Z,14.00
2023-02-05T12:53:42.519Z,14.30
2023-02-05T12:56:38.856Z,14.50
2023-02-05T12:59:18.818Z,14.70
2023-02-05T13:01:52.978Z,15.00
2023-02-05T13:04:27.137Z,15.60
2023-02-05T13:07:08.488Z,15.30
2023-02-05T13:09:42.024Z,15.50
2023-02-05T13:12:13.996Z,15.60
2023-02-05T13:14:46.493Z,15.50
2023-02-05T13:17:28.183Z,15.60
2023-02-05T13:20:01.870Z,15.80
2023-02-05T13:22:54.014Z,15.70
2023-02-05T13:26:06.695Z,15.70
2023-02-05T13:28:46.754Z,15.60
2023-02-05T13:31:24.234Z,15.70
2023-02-05T13:33:54.639Z,15.80
2023-02-05T13:36:46.300Z,15.20
2023-02-05T13:39:34.667Z,15.80
2023-02-05T13:42:48.788Z,16.30
2023-02-05T13:45:41.404Z,16.20
2023-02-05T13:48:41.210Z,16.70
2023-02-05T13:51:38.119Z,16.90
2023-02-05T13:54:38.038Z,16.90
2023-02-05T13:57:21.124Z,17.00
2023-02-05T13:59:53.060Z,16.90
2023-02-05T14:02:39.285Z,17.10
2023-02-05T14:05:07.754Z,17.40
2023-02-05T14:07:45.844Z,17.40
2023-02-05T14:10:33.372Z,17.40
2023-02-05T14:13:28.572Z,18.20
2023-02-05T14:16:00.481Z,17.90
2023-02-05T14:18:40.328Z,17.80
2023-02-05T14:21:29.583Z,17.90
2023-02-05T14:24:15.980Z,18.30
2023-02-05T14:26:51.775Z,18.20
2023-02-05T14:29:48.185Z,18.30
2023-02-05T14:32:30.478Z,18.10
2023-02-05T14:34:59.048Z,17.80
2023-02-05T14:37:38.193Z,17.80
2023-02-05T14:40:27.365Z,17.60
2023-02-05T14:43:09.615Z,17.70
2023-02-05T14:45:47.034Z,17.80
2023-02-05T14:48:30.712Z,17.90
2023-02-05T14:51:38.314Z,17.70
2023-02-05T14:54:08.003Z,17.60
2023-02-05T14:56:44.014Z,17.20
2023-02-05T14:59:29.434Z,16.70
2023-02-05T15:01:59.472Z,16.20
2023-02-05T15:04:29.807Z,15.80
2023-02-05T15:07:01.781Z,15.70
2023-02-05T15:09:50.875Z,15.60
2023-02-05T15:12:46.561Z,15.80
2023-02-05T15:15:30.446Z,16.00
2023-02-05T15:18:04.755Z,16.50
2023-02-05T15:20:36.128Z,16.70
2023-02-05T15:23:23.458Z,17.10
2023-02-05T15:26:03.754Z,17.30
2023-02-05T15:28:45.812Z,17.50
2023-02-05T15:31:41.623Z,17.70
2023-02-05T15:34:22.794Z,17.90
2023-02-05T15:37:14.335Z,17.70
2023-02-05T15:39:59.441Z,17.60
2023-02-05T15:42:37.340Z,18.20
2023-02-05T15:45:25.676Z,17.10
2023-02-05T15:48:03.896Z,16.70
2023-02-05T15:50:35.368Z,16.30
2023-02-05T15:53:32.824Z,16.00
2023-02-05T15:56:13.054Z,15.70
2023-02-05T15:58:47.604Z,15.30
2023-02-05T16:01:26.493Z,15.20
2023-02-05T16:03:54.097Z,15.00
2023-02-05T16:06:24.286Z,14.60
2023-02-05T16:08:53.666Z,14.30
2023-02-05T16:11:32.199Z,14.20
2023-02-05T16:14:10.793Z,14.10
2023-02-05T16:16:42.701Z,13.70
2023-02-05T16:19:17.648Z,13.70
2023-02-05T16:21:52.375Z,12.70
2023-02-05T16:25:01.633Z,12.90
2023-02-05T16:27:46.507Z,12.50
2023-02-05T16:30:18.704Z,12.10
2023-02-05T16:32:47.252Z,11.80
2023-02-05T16:35:34.341Z,11.50
2023-02-05T16:38:03.680Z,11.00
2023-02-05T16:40:40.736Z,10.90
2023-02-05T16:43:34.507Z,10.50
2023-02-05T16:46:22.006Z,10.20
2023-02-05T16:48:56.619Z,10.00
2023-02-05T16:51:32.952Z,9.90
2023-02-05T16:54:03.078Z,9.60
2023-02-05T16:56:35.757Z,9.90
2023-02-05T16:59:05.460Z,9.50
2023-02-05T17:01:39.139Z,10.20
2023-02-05T17:04:07.478Z,9.10
2023-02-05T17:06:37.369Z,9.00
2023-02-05T17:09:05.718Z,9.80
2023-02-05T17:11:43.733Z,9.10
2023-02-05T17:14:35.751Z,8.80
2023-02-05T17:17:25.119Z,8.70
2023-02-05T17:20:17.518Z,9.20
2023-02-05T17:23:12.523Z,8.40
2023-02-05T17:25:49.507Z,8.20
2023-02-05T17:28:20.040Z,8.40
2023-02-05T17:30:48.890Z,8.30
2023-02-05T17:33:22.414Z,9.40
2023-02-05T17:35:51.286Z,8.00
2023-02-05T17:38:26.192Z,8.00
2023-02-05T17:41:13.590Z,8.00
2023-02-05T17:43:41.266Z,7.80
2023-02-05T17:46:15.059Z,7.80
2023-02-05T17:48:44.468Z,8.00
2023-02-05T17:51:20.316Z,7.70
2023-02-05T17:53:48.904Z,7.90
2023-02-05T17:56:19.097Z,9.00
2023-02-05T17:58:46.363Z,7.90
2023-02-05T18:01:13.750Z,7.80
2023-02-05T18:06:11.501Z,7.60
2023-02-05T18:08:38.823Z,8.30
2023-02-05T18:11:06.169Z,9.00
2023-02-05T18:13:34.058Z,7.60
2023-02-05T18:16:03.412Z,7.50
2023-02-05T18:18:32.479Z,7.80
2023-02-05T18:20:59.794Z,7.60
2023-02-05T18:23:29.435Z,7.60
2023-02-05T18:26:00.616Z,7.60
2023-02-05T18:28:28.553Z,7.40
2023-02-05T18:31:01.546Z,7.40
2023-02-05T18:33:28.981Z,7.70
2023-02-05T18:36:01.293Z,7.30
2023-02-05T18:38:31.015Z,7.50
2023-02-05T18:41:05.671Z,7.30
2023-02-05T18:46:09.172Z,7.20
2023-02-05T18:48:37.412Z,7.10
2023-02-05T18:51:06.304Z,7.30
2023-02-05T18:53:35.291Z,7.10
2023-02-05T18:56:06.116Z,7.10
2023-02-05T18:58:34.182Z,7.10
2023-02-05T19:01:22.241Z,7.10
2023-02-05T19:06:21.675Z,7.00
2023-02-05T19:08:49.983Z,6.90
2023-02-05T19:11:24.195Z,6.90
2023-02-05T19:14:00.049Z,6.90
2023-02-05T19:16:27.640Z,6.80
2023-02-05T19:18:55.230Z,6.60
2023-02-05T19:21:23.913Z,6.50
2023-02-05T19:23:54.119Z,8.40
2023-02-05T19:26:23.818Z,6.60
2023-02-05T19:29:02.252Z,6.50
2023-02-05T19:31:31.752Z,6.20
2023-02-05T19:34:00.104Z,6.60
2023-02-05T19:36:28.504Z,6.50
2023-02-05T19:38:56.173Z,6.70
2023-02-05T19:41:26.302Z,6.40
2023-02-05T19:44:02.155Z,6.60
2023-02-05T19:46:32.099Z,6.80
2023-02-05T19:49:05.878Z,6.40
2023-02-05T19:51:33.718Z,6.20
2023-02-05T19:54:03.000Z,6.30
2023-02-05T19:56:32.245Z,6.30
2023-02-05T19:58:59.672Z,6.10
2023-02-05T20:01:29.583Z,6.40
2023-02-05T20:03:59.861Z,6.20
2023-02-05T20:06:29.344Z,6.20
2023-02-05T20:08:57.158Z,6.80
2023-02-05T20:11:24.405Z,6.20
2023-02-05T20:13:53.569Z,6.10
2023-02-05T20:16:22.903Z,6.80
2023-02-05T20:18:56.043Z,6.00
2023-02-05T20:21:24.218Z,5.90
2023-02-05T20:23:51.517Z,6.80
2023-02-05T20:26:19.344Z,6.10
2023-02-05T20:29:06.508Z,5.80
2023-02-05T20:31:34.495Z,5.80
2023-02-05T20:34:03.097Z,5.70
2023-02-05T20:36:31.971Z,6.00
2023-02-05T20:39:00.770Z,5.50
2023-02-05T20:41:28.113Z,5.60
2023-02-05T20:43:57.837Z,5.30
2023-02-05T20:46:25.906Z,5.30
2023-02-05T20:48:53.199Z,5.50
2023-02-05T20:51:22.748Z,5.40
2023-02-05T20:53:50.429Z,5.40
2023-02-05T20:56:20.159Z,5.00
2023-02-05T20:58:47.567Z,5.50
2023-02-05T21:01:20.661Z,5.30
2023-02-05T21:03:50.880Z,5.00
2023-02-05T21:06:19.761Z,5.90
2023-02-05T21:08:49.095Z,5.50
2023-02-05T21:11:17.153Z,5.60
2023-02-05T21:13:46.469Z,5.50
2023-02-05T21:16:15.631Z,5.60
2023-02-05T21:18:47.395Z,7.00
2023-02-05T21:21:21.188Z,6.70
2023-02-05T21:23:52.291Z,5.40
2023-02-05T21:26:29.709Z,5.60
2023-02-05T21:28:59.572Z,5.40
2023-02-05T21:31:33.759Z,5.40
2023-02-05T21:34:02.404Z,5.30
2023-02-05T21:36:30.241Z,5.40
2023-02-05T21:38:57.712Z,5.40
2023-02-05T21:43:55.668Z,5.30
2023-02-05T21:46:24.207Z,5.20
2023-02-05T21:48:54.391Z,5.80
2023-02-05T21:51:24.034Z,5.20
2023-02-05T21:53:58.739Z,5.00
2023-02-05T21:56:29.449Z,5.00
2023-02-05T21:58:57.615Z,5.20
2023-02-05T22:01:27.238Z,5.30
2023-02-05T22:04:15.506Z,4.90
2023-02-05T22:06:44.005Z,5.00
2023-02-05T22:09:13.865Z,5.90
2023-02-05T22:14:10.456Z,4.90
2023-02-05T22:16:38.331Z,4.90
2023-02-05T22:19:06.559Z,5.10
2023-02-05T22:21:42.444Z,4.90
2023-02-05T22:24:14.843Z,5.80
2023-02-05T22:26:42.812Z,5.90
2023-02-05T22:29:13.396Z,4.80
2023-02-05T22:31:41.238Z,4.70
2023-02-05T22:34:08.710Z,4.60
2023-02-05T22:36:36.275Z,4.80
2023-02-05T22:39:05.750Z,4.90
2023-02-05T22:41:36.074Z,4.90
2023-02-05T22:44:04.993Z,5.80
2023-02-05T22:46:34.940Z,4.80
2023-02-05T22:49:03.577Z,4.90
2023-02-05T22:51:34.254Z,4.80
2023-02-05T22:56:29.757Z,5.00
2023-02-05T22:58:57.351Z,5.00
2023-02-05T23:01:26.049Z,5.30
2023-02-05T23:03:53.804Z,5.30
2023-02-05T23:06:24.095Z,4.90
2023-02-05T23:08:53.755Z,4.80
2023-02-05T23:11:21.967Z,4.90
2023-02-05T23:13:50.347Z,4.90
2023-02-05T23:16:26.796Z,4.90
2023-02-05T23:18:57.894Z,4.90
2023-02-05T23:21:27.631Z,4.90
2023-02-05T23:23:55.075Z,4.90
2023-02-05T23:26:25.280Z,4.90
2023-02-05T23:28:54.222Z,4.90
2023-02-05T23:31:23.170Z,5.00
2023-02-05T23:33:51.434Z,5.60
2023-02-05T23:36:19.088Z,4.90
2023-02-05T23:38:47.146Z,4.90
2023-02-05T23:41:14.498Z,4.90
2023-02-05T23:43:41.785Z,4.70
2023-02-05T23:46:09.233Z,4.90
2023-02-05T23:48:36.631Z,4.90
2023-02-05T23:51:03.888Z,5.10
2023-02-05T23:53:31.136Z,5.70
2023-02-05T23:55:58.395Z,4.80
2023-02-05T23:58:27.977Z,4.80
